Time;durP1;ratioP1;P1;durP2;ratioP2;P2;SDS_P1;SDS_P2;PMS_P1;PMS_P2;Temp;Humidity;BMP_temperature;BMP_pressure;BME280_temperature;BME280_humidity;BME280_pressure;Samples;Min_cycle;Max_cycle;Signal;HPM_P1;HPM_P2
2022/10/14 00:01:07;;;;;;;12.53;11.37;;;14.80;50.70;;;;;;5032579;28;20924;-56
2022/10/14 00:03:33;;;;;;;12.03;11.13;;;14.80;51.00;;;;;;5030345;28;20798;-57
2022/10/14 00:06:03;;;;;;;12.90;11.83;;;14.80;50.80;;;;;;5025563;28;20481;-56
2022/10/14 00:08:29;;;;;;;19.03;11.40;;;14.70;50.70;;;;;;5027542;28;20760;-57
2022/10/14 00:10:54;;;;;;;12.80;11.60;;;14.80;50.90;;;;;;5026902;28;20416;-56
2022/10/14 00:13:20;;;;;;;12.00;11.20;;;14.80;51.10;;;;;;5024088;28;20204;-57
2022/10/14 00:15:46;;;;;;;11.43;10.40;;;14.70;51.10;;;;;;5024951;28;20208;-55
2022/10/14 00:18:11;;;;;;;11.00;10.30;;;14.70;51.10;;;;;;5025632;28;20189;-55
2022/10/14 00:20:37;;;;;;;11.90;11.10;;;14.60;50.90;;;;;;5026273;28;20172;-56
2022/10/14 00:23:03;;;;;;;11.23;10.47;;;14.70;50.80;;;;;;5023876;28;20217;-56
2022/10/14 00:25:28;;;;;;;12.23;11.53;;;14.90;50.80;;;;;;5024421;28;20185;-56
2022/10/14 00:27:54;;;;;;;11.10;10.50;;;15.00;49.70;;;;;;5027278;28;20267;-57
2022/10/14 00:30:20;;;;;;;12.07;11.10;;;15.10;48.90;;;;;;5027324;28;20181;-56
2022/10/14 00:32:46;;;;;;;11.33;10.53;;;15.20;48.90;;;;;;5022658;28;20698;-57
2022/10/14 00:35:11;;;;;;;13.17;12.03;;;15.30;48.40;;;;;;5025596;28;20573;-57
2022/10/14 00:37:37;;;;;;;12.47;11.47;;;15.40;47.70;;;;;;5024485;28;20180;-56
2022/10/14 00:40:04;;;;;;;12.13;11.43;;;15.50;47.20;;;;;;5025949;28;20262;-57
2022/10/14 00:42:33;;;;;;;13.20;12.37;;;15.60;46.60;;;;;;5025792;28;20414;-57
2022/10/14 00:45:14;;;;;;;12.03;11.33;;;15.60;46.50;;;;;;5026715;28;20419;-57
2022/10/14 00:47:42;;;;;;;13.53;12.63;;;15.40;46.30;;;;;;5024328;28;20438;-55
2022/10/14 00:50:10;;;;;;;13.47;12.57;;;15.30;47.10;;;;;;5025259;28;20562;-56
2022/10/14 00:52:36;;;;;;;13.47;12.67;;;15.20;47.60;;;;;;5026494;28;21032;-56
2022/10/14 00:55:13;;;;;;;13.47;12.47;;;15.20;48.00;;;;;;5044347;28;20505;-57
2022/10/14 00:57:39;;;;;;;12.80;11.73;;;15.10;47.50;;;;;;5044181;28;20437;-57
2022/10/14 01:00:11;;;;;;;12.10;11.30;;;15.20;47.70;;;;;;5043708;28;20418;-57
2022/10/14 01:02:38;;;;;;;12.37;11.57;;;15.20;47.80;;;;;;5043698;28;20208;-56
2022/10/14 01:05:05;;;;;;;11.67;11.00;;;15.20;48.10;;;;;;5044637;28;20415;-56
2022/10/14 01:07:54;;;;;;;15.03;14.03;;;15.40;47.80;;;;;;5045175;28;20407;-57
2022/10/14 01:10:26;;;;;;;12.80;12.10;;;15.50;47.40;;;;;;5042316;28;20419;-57
2022/10/14 01:13:00;;;;;;;12.10;11.50;;;15.50;46.80;;;;;;5043278;28;20426;-56
2022/10/14 01:15:47;;;;;;;12.80;11.87;;;15.60;46.60;;;;;;5043758;28;20428;-56
2022/10/14 01:18:36;;;;;;;13.10;12.20;;;15.60;46.20;;;;;;5043290;28;20426;-56
2022/10/14 01:21:15;;;;;;;12.97;12.27;;;15.70;46.00;;;;;;5015103;28;20422;-57
2022/10/14 01:23:50;;;;;;;12.60;11.70;;;15.70;45.60;;;;;;5043875;28;20511;-56
2022/10/14 01:26:22;;;;;;;12.63;11.83;;;15.80;45.60;;;;;;5043950;28;20445;-56
2022/10/14 01:29:13;;;;;;;13.57;12.67;;;15.80;45.60;;;;;;5045013;28;20509;-57
2022/10/14 01:32:01;;;;;;;12.47;11.77;;;15.80;45.60;;;;;;5044001;28;20432;-55
2022/10/14 01:34:32;;;;;;;12.50;11.63;;;15.70;45.30;;;;;;5042204;28;20426;-56
2022/10/14 01:37:04;;;;;;;13.13;12.07;;;15.80;45.40;;;;;;5042864;28;20839;-56
2022/10/14 01:39:40;;;;;;;12.87;12.00;;;15.70;45.00;;;;;;5042412;28;20907;-56
2022/10/14 01:42:17;;;;;;;12.63;12.00;;;15.60;45.70;;;;;;5042794;28;20552;-57
2022/10/14 01:44:49;;;;;;;12.90;12.10;;;15.50;46.40;;;;;;5041690;28;20421;-56
2022/10/14 01:47:18;;;;;;;13.97;12.77;;;15.50;46.50;;;;;;5041511;28;20419;-56
2022/10/14 01:49:50;;;;;;;13.07;12.23;;;15.50;46.40;;;;;;5043062;28;20906;-57
2022/10/14 01:52:21;;;;;;;13.17;12.27;;;15.50;46.60;;;;;;5041546;28;20457;-55
2022/10/14 01:54:50;;;;;;;11.93;11.33;;;15.30;46.80;;;;;;5040538;28;20918;-56
2022/10/14 01:57:20;;;;;;;13.00;12.23;;;15.20;48.90;;;;;;5042342;28;20457;-56
2022/10/14 01:59:46;;;;;;;12.93;12.03;;;15.00;50.20;;;;;;5041579;28;20427;-56
2022/10/14 02:02:12;;;;;;;12.50;11.90;;;14.90;52.30;;;;;;5043528;28;20454;-57
2022/10/14 02:04:38;;;;;;;13.37;12.37;;;14.70;53.20;;;;;;5043878;28;20460;-56
2022/10/14 02:07:28;;;;;;;12.47;11.77;;;14.60;53.70;;;;;;5030060;28;20424;-56
2022/10/14 02:10:20;;;;;;;14.60;13.60;;;14.60;55.50;;;;;;5018798;28;20442;-57
2022/10/14 02:12:54;;;;;;;14.70;13.20;;;14.40;56.50;;;;;;4997408;28;20424;-56
2022/10/14 02:15:43;;;;;;;14.40;13.40;;;14.40;57.00;;;;;;5019523;28;20419;-56
2022/10/14 02:18:17;;;;;;;12.30;11.57;;;14.40;57.20;;;;;;5023659;28;20428;-57
2022/10/14 02:20:59;;;;;;;12.60;11.90;;;14.40;56.90;;;;;;5021113;28;20425;-56
2022/10/14 02:23:38;;;;;;;12.83;12.23;;;14.30;56.50;;;;;;5021022;28;20470;-57
2022/10/14 02:26:05;;;;;;;14.17;13.10;;;14.30;57.20;;;;;;5019609;28;20771;-56
2022/10/14 02:28:32;;;;;;;12.67;11.87;;;14.30;57.10;;;;;;5021808;28;20423;-57
2022/10/14 02:31:09;;;;;;;12.33;11.43;;;14.30;57.40;;;;;;5020971;28;20465;-57
2022/10/14 02:33:40;;;;;;;12.90;12.10;;;14.40;57.70;;;;;;5021717;28;20911;-57
2022/10/14 02:36:07;;;;;;;12.40;11.30;;;14.50;57.00;;;;;;5022485;28;21015;-54
2022/10/14 02:38:34;;;;;;;12.23;11.30;;;14.70;55.50;;;;;;5018813;28;20470;-57
2022/10/14 02:41:04;;;;;;;13.77;12.60;;;14.80;54.60;;;;;;5018758;28;20497;-56
2022/10/14 02:43:30;;;;;;;12.43;11.53;;;14.90;53.60;;;;;;5020376;28;20782;-56
2022/10/14 02:46:01;;;;;;;12.30;11.50;;;15.00;53.10;;;;;;5023092;28;20442;-56
2022/10/14 02:48:26;;;;;;;11.17;10.57;;;15.10;52.60;;;;;;5021284;28;20523;-57
2022/10/14 02:50:52;;;;;;;12.07;11.27;;;15.20;52.80;;;;;;5020104;28;20431;-56
2022/10/14 02:56:39;;;;;;;13.33;12.53;;;15.20;51.10;;;;;;5020688;28;20222;-61
2022/10/14 02:59:05;;;;;;;12.60;11.80;;;15.20;51.50;;;;;;5020650;28;20411;-60
2022/10/14 03:01:32;;;;;;;12.23;11.40;;;15.10;50.90;;;;;;5021159;28;20660;-60
2022/10/14 03:03:57;;;;;;;12.97;11.70;;;15.20;51.20;;;;;;5022674;28;20415;-61
2022/10/14 03:06:23;;;;;;;13.50;12.80;;;15.10;51.00;;;;;;5021149;28;20435;-60
2022/10/14 03:08:49;;;;;;;13.83;12.63;;;15.00;51.80;;;;;;5025521;28;20563;-61
2022/10/14 03:11:15;;;;;;;13.20;12.43;;;15.00;51.50;;;;;;5025753;28;20422;-61
2022/10/14 03:13:40;;;;;;;12.40;11.80;;;14.90;52.00;;;;;;5027576;28;20931;-60
2022/10/14 03:16:06;;;;;;;12.40;11.80;;;15.00;52.20;;;;;;5028475;28;20213;-60
2022/10/14 03:18:32;;;;;;;12.33;11.63;;;15.00;52.40;;;;;;5028131;28;20184;-60
2022/10/14 03:20:57;;;;;;;13.47;12.67;;;15.10;52.20;;;;;;5025832;28;20184;-61
2022/10/14 03:23:23;;;;;;;14.50;13.43;;;15.20;51.70;;;;;;5028529;28;20695;-61
2022/10/14 03:25:49;;;;;;;12.60;11.57;;;15.20;51.40;;;;;;5030078;28;20223;-60
2022/10/14 03:28:14;;;;;;;13.10;12.20;;;15.30;51.00;;;;;;5027979;28;20180;-61
2022/10/14 03:30:40;;;;;;;13.37;12.50;;;15.40;50.90;;;;;;5028836;28;20185;-61
2022/10/14 03:33:05;;;;;;;12.37;11.50;;;15.40;50.70;;;;;;5031257;28;20334;-60
2022/10/14 03:35:31;;;;;;;13.63;12.60;;;15.50;50.50;;;;;;5031839;28;20181;-60
2022/10/14 03:38:01;;;;;;;13.20;12.43;;;15.50;50.30;;;;;;5029890;28;20598;-61
2022/10/14 03:40:26;;;;;;;14.10;13.17;;;15.50;50.20;;;;;;5029608;28;20185;-60
2022/10/14 03:42:52;;;;;;;13.27;12.57;;;15.50;49.90;;;;;;5031552;28;20489;-61
2022/10/14 03:45:18;;;;;;;13.67;12.90;;;15.50;50.20;;;;;;5032179;28;20181;-61
2022/10/14 03:47:43;;;;;;;13.50;12.70;;;15.50;50.20;;;;;;5033167;28;20184;-60
2022/10/14 03:50:09;;;;;;;12.73;12.00;;;15.50;50.30;;;;;;5032168;28;20722;-60
2022/10/14 03:52:35;;;;;;;14.10;13.00;;;15.50;49.80;;;;;;5033018;28;20231;-60
2022/10/14 03:55:00;;;;;;;13.43;12.83;;;15.50;50.20;;;;;;5033876;28;20592;-61
2022/10/14 03:57:26;;;;;;;13.80;12.90;;;15.50;50.30;;;;;;5028052;28;20207;-60
2022/10/14 03:59:51;;;;;;;16.63;12.40;;;15.50;50.30;;;;;;5062741;28;20179;-60
2022/10/14 04:02:17;;;;;;;14.17;13.17;;;15.50;50.60;;;;;;5044280;28;20294;-60
2022/10/14 04:04:43;;;;;;;14.30;13.00;;;15.50;50.80;;;;;;5045663;28;20700;-60
2022/10/14 04:07:08;;;;;;;13.13;12.50;;;15.50;50.80;;;;;;5033578;28;20172;-60
2022/10/14 04:09:34;;;;;;;14.20;13.30;;;15.50;51.10;;;;;;5052448;28;20183;-60
2022/10/14 04:11:59;;;;;;;13.73;12.73;;;15.50;50.90;;;;;;5051790;28;20191;-57
2022/10/14 04:14:25;;;;;;;14.07;13.23;;;15.50;51.00;;;;;;5053246;28;20210;-56
2022/10/14 04:16:51;;;;;;;15.03;13.97;;;15.50;50.90;;;;;;5045505;28;20685;-56
2022/10/14 04:19:17;;;;;;;14.47;13.43;;;15.50;51.10;;;;;;5030416;28;20529;-55
2022/10/14 04:21:43;;;;;;;15.00;14.07;;;15.50;51.40;;;;;;5032337;28;20611;-56
2022/10/14 04:24:09;;;;;;;14.90;13.80;;;15.50;51.40;;;;;;5033077;28;20419;-56
2022/10/14 04:26:35;;;;;;;14.90;13.33;;;15.50;51.40;;;;;;5031498;28;20412;-56
2022/10/14 04:29:01;;;;;;;14.20;13.30;;;15.50;51.40;;;;;;5032069;28;20427;-55
2022/10/14 04:31:26;;;;;;;14.60;13.53;;;15.50;51.90;;;;;;5032112;28;20177;-56
2022/10/14 04:33:52;;;;;;;14.13;13.33;;;15.50;51.80;;;;;;5030389;28;20188;-56
2022/10/14 04:36:18;;;;;;;15.30;14.40;;;15.50;51.70;;;;;;5031488;28;20188;-56
2022/10/14 04:38:43;;;;;;;15.70;14.70;;;15.50;51.80;;;;;;5031865;28;20227;-56
2022/10/14 04:41:09;;;;;;;14.57;13.33;;;15.50;51.50;;;;;;5028672;28;20184;-56
2022/10/14 04:43:35;;;;;;;15.73;14.40;;;15.50;51.60;;;;;;5032511;28;20255;-55
2022/10/14 04:46:01;;;;;;;13.10;12.40;;;15.50;51.40;;;;;;5027701;28;20180;-57
2022/10/14 04:48:26;;;;;;;16.40;12.97;;;15.50;51.60;;;;;;5031118;28;20680;-56
2022/10/14 04:50:52;;;;;;;14.00;13.10;;;15.50;51.50;;;;;;5031919;28;20271;-55
2022/10/14 04:53:20;;;;;;;14.27;13.27;;;15.50;51.70;;;;;;5046354;28;20195;-56
2022/10/14 04:55:48;;;;;;;14.10;13.30;;;15.50;51.70;;;;;;5050209;28;20476;-56
2022/10/14 04:58:14;;;;;;;15.20;14.20;;;15.30;50.70;;;;;;5052203;28;20430;-56
2022/10/14 05:00:41;;;;;;;14.80;13.83;;;15.20;51.40;;;;;;5050186;28;20419;-57
2022/10/14 05:03:06;;;;;;;15.03;13.80;;;15.10;51.80;;;;;;5036909;28;20470;-56
2022/10/14 05:05:32;;;;;;;15.20;14.27;;;15.00;52.40;;;;;;5029742;28;20412;-56
2022/10/14 05:07:58;;;;;;;14.93;14.13;;;15.00;52.70;;;;;;5033196;28;20543;-57
2022/10/14 05:10:23;;;;;;;15.03;14.00;;;14.80;53.50;;;;;;5030359;28;20426;-56
2022/10/14 05:12:49;;;;;;;16.50;15.10;;;14.70;54.20;;;;;;5040838;28;20705;-56
2022/10/14 05:15:15;;;;;;;15.63;14.70;;;14.70;54.20;;;;;;5050219;28;20179;-56
2022/10/14 05:17:43;;;;;;;16.10;14.83;;;14.80;54.50;;;;;;5041810;28;20195;-56
2022/10/14 05:20:10;;;;;;;15.70;14.40;;;14.80;54.00;;;;;;5030510;28;20434;-57
2022/10/14 05:22:36;;;;;;;13.97;13.10;;;14.80;54.50;;;;;;5030340;28;20475;-56
2022/10/14 05:25:02;;;;;;;16.33;15.23;;;14.90;54.50;;;;;;5030443;28;20415;-56
2022/10/14 05:27:28;;;;;;;15.87;14.80;;;14.80;54.20;;;;;;5043713;28;20183;-57
2022/10/14 05:29:53;;;;;;;16.90;15.70;;;14.80;54.30;;;;;;5068756;28;20221;-56
2022/10/14 05:32:19;;;;;;;16.30;14.90;;;14.70;54.30;;;;;;5058655;28;20431;-56
2022/10/14 05:34:45;;;;;;;17.00;15.40;;;14.70;54.90;;;;;;5051461;28;20571;-56
2022/10/14 05:37:10;;;;;;;15.60;14.70;;;14.60;55.10;;;;;;5049392;28;20644;-55
2022/10/14 05:39:36;;;;;;;15.37;14.37;;;14.60;55.40;;;;;;5032213;28;20188;-57
2022/10/14 05:42:02;;;;;;;15.20;14.30;;;14.60;55.20;;;;;;5036812;28;20240;-56
2022/10/14 05:44:27;;;;;;;17.27;16.27;;;14.60;54.80;;;;;;5067803;28;20270;-56
2022/10/14 05:46:53;;;;;;;17.80;16.50;;;14.50;55.10;;;;;;5067666;28;20214;-58
2022/10/14 05:49:19;;;;;;;18.30;17.10;;;14.50;55.40;;;;;;5027824;28;20299;-57
2022/10/14 05:51:44;;;;;;;17.70;16.50;;;14.40;55.30;;;;;;5043285;28;20688;-57
2022/10/14 05:54:11;;;;;;;16.13;14.93;;;14.40;55.70;;;;;;5042908;28;20177;-57
2022/10/14 05:56:36;;;;;;;16.67;15.47;;;14.40;56.10;;;;;;5043115;28;20183;-58
2022/10/14 05:59:02;;;;;;;16.27;14.97;;;14.40;55.30;;;;;;5082816;28;20515;-57
2022/10/14 06:01:30;;;;;;;14.80;13.87;;;14.50;55.40;;;;;;5070291;28;20271;-57
2022/10/14 06:03:55;;;;;;;16.57;15.63;;;14.50;55.40;;;;;;5034911;28;20997;-58
2022/10/14 06:06:21;;;;;;;16.60;15.50;;;14.60;55.30;;;;;;5042989;28;20412;-58
2022/10/14 06:08:47;;;;;;;18.00;16.73;;;14.60;54.90;;;;;;5044391;28;20173;-58
2022/10/14 06:11:13;;;;;;;17.83;16.63;;;14.60;54.00;;;;;;5042432;28;20568;-57
2022/10/14 06:13:39;;;;;;;16.50;15.50;;;14.70;54.40;;;;;;5045500;28;20204;-57
2022/10/14 06:16:06;;;;;;;16.40;15.33;;;14.70;53.90;;;;;;5041287;28;20176;-57
2022/10/14 06:18:33;;;;;;;15.87;13.43;;;14.60;53.90;;;;;;5054416;28;20942;-57
2022/10/14 06:20:59;;;;;;;16.27;15.17;;;14.60;54.40;;;;;;5045603;28;20813;-59
2022/10/14 06:23:24;;;;;;;16.63;15.23;;;14.60;54.60;;;;;;5047960;28;20466;-58
2022/10/14 06:25:50;;;;;;;16.17;14.80;;;14.60;55.50;;;;;;5045266;28;20417;-58
2022/10/14 06:28:16;;;;;;;17.03;15.83;;;14.70;54.80;;;;;;5047260;28;20178;-62
2022/10/14 06:30:47;;;;;;;15.10;13.87;;;14.70;54.80;;;;;;5045900;28;20809;-58
2022/10/14 06:33:13;;;;;;;15.90;14.63;;;14.70;54.80;;;;;;5038529;28;20474;-58
2022/10/14 06:35:38;;;;;;;17.07;15.70;;;14.70;54.20;;;;;;5026273;28;20420;-57
2022/10/14 06:38:04;;;;;;;15.37;14.17;;;14.70;54.20;;;;;;5040688;28;20180;-58
2022/10/14 06:40:29;;;;;;;17.30;16.00;;;14.70;54.00;;;;;;5047540;28;20207;-56
2022/10/14 06:42:57;;;;;;;17.43;15.80;;;14.80;54.30;;;;;;5044810;28;20647;-53
2022/10/14 06:45:23;;;;;;;14.50;13.30;;;14.80;54.40;;;;;;5045823;28;20199;-53
2022/10/14 06:47:48;;;;;;;14.90;13.80;;;14.90;54.10;;;;;;5041900;28;20463;-55
2022/10/14 06:50:14;;;;;;;14.03;13.10;;;15.00;53.40;;;;;;5026592;28;20176;-53
2022/10/14 06:52:39;;;;;;;14.60;13.50;;;15.00;53.50;;;;;;5024756;28;20176;-55
2022/10/14 06:55:05;;;;;;;14.30;13.40;;;15.10;53.50;;;;;;5026231;28;20183;-55
2022/10/14 06:57:31;;;;;;;15.47;14.37;;;15.10;53.50;;;;;;5023520;28;20191;-61
2022/10/14 06:59:57;;;;;;;16.73;14.60;;;15.10;52.70;;;;;;5031387;28;20962;-61
2022/10/14 07:02:22;;;;;;;15.43;14.20;;;15.10;53.30;;;;;;5044082;28;20218;-61
2022/10/14 07:04:48;;;;;;;15.20;13.93;;;15.10;52.70;;;;;;5025630;28;20230;-61
2022/10/14 07:07:13;;;;;;;14.53;13.40;;;15.00;52.20;;;;;;5024700;28;20184;-61
2022/10/14 07:09:39;;;;;;;17.53;14.00;;;15.00;52.30;;;;;;5029522;28;20172;-61
2022/10/14 07:12:05;;;;;;;14.93;13.50;;;15.10;52.80;;;;;;5045549;28;20172;-54
2022/10/14 07:14:30;;;;;;;16.57;15.37;;;15.10;52.30;;;;;;5049977;28;20214;-55
2022/10/14 07:16:57;;;;;;;14.47;13.37;;;15.10;52.50;;;;;;5030781;28;20195;-54
2022/10/14 07:19:22;;;;;;;15.10;13.90;;;15.10;52.40;;;;;;5061113;28;20180;-51
2022/10/14 07:21:48;;;;;;;15.60;14.50;;;15.10;52.50;;;;;;5049305;28;20487;-55
2022/10/14 07:24:14;;;;;;;15.67;14.67;;;15.10;52.10;;;;;;5050137;28;20171;-55
2022/10/14 07:26:40;;;;;;;15.90;14.80;;;15.00;52.40;;;;;;5049922;28;20254;-53
2022/10/14 07:29:06;;;;;;;14.37;13.57;;;15.00;52.60;;;;;;5050108;28;20172;-54
2022/10/14 07:31:31;;;;;;;14.50;13.50;;;15.00;52.10;;;;;;5049177;28;20176;-54
2022/10/14 07:33:58;;;;;;;14.53;13.63;;;15.00;52.20;;;;;;5039889;28;20486;-53
2022/10/14 07:36:24;;;;;;;14.60;13.40;;;15.00;52.40;;;;;;5047811;28;20473;-54
2022/10/14 07:38:49;;;;;;;15.70;14.47;;;15.00;52.20;;;;;;5049709;28;20787;-54
2022/10/14 07:41:18;;;;;;;14.67;13.40;;;15.10;51.80;;;;;;5049224;28;20183;-53
2022/10/14 07:43:49;;;;;;;14.23;13.20;;;15.00;51.80;;;;;;5049647;28;20203;-53
2022/10/14 07:46:27;;;;;;;14.00;12.80;;;15.00;51.90;;;;;;5049764;28;20752;-55
2022/10/14 07:48:52;;;;;;;14.93;13.83;;;15.00;51.80;;;;;;5042829;28;20855;-54
2022/10/14 07:51:18;;;;;;;14.17;13.17;;;15.10;52.10;;;;;;5045928;28;20506;-53
2022/10/14 07:53:43;;;;;;;14.07;13.00;;;15.20;52.10;;;;;;5046576;28;20275;-54
2022/10/14 07:56:09;;;;;;;13.97;12.87;;;15.20;51.50;;;;;;5050310;28;20227;-54
2022/10/14 07:58:34;;;;;;;14.80;13.90;;;15.10;50.40;;;;;;5049950;28;20177;-60
2022/10/14 08:01:00;;;;;;;14.43;13.43;;;15.10;50.60;;;;;;5034143;28;20566;-60
2022/10/14 08:03:26;;;;;;;15.30;14.33;;;15.10;50.80;;;;;;5062948;28;20246;-60
2022/10/14 08:05:59;;;;;;;13.20;12.40;;;15.10;49.90;;;;;;5073061;28;20266;-60
2022/10/14 08:08:24;;;;;;;13.97;12.83;;;15.20;49.90;;;;;;5033627;28;20256;-61
2022/10/14 08:11:21;;;;;;;13.10;12.30;;;15.20;49.50;;;;;;5049047;28;20527;-60
2022/10/14 08:13:48;;;;;;;14.07;12.70;;;15.30;49.00;;;;;;5024699;28;20196;-61
2022/10/14 08:16:23;;;;;;;13.60;12.27;;;15.40;48.70;;;;;;5049669;28;20426;-61
2022/10/14 08:18:50;;;;;;;15.47;13.40;;;15.40;48.60;;;;;;5054994;28;20426;-61
2022/10/14 08:21:17;;;;;;;13.97;12.93;;;15.30;48.30;;;;;;5052677;28;20514;-61
2022/10/14 08:23:43;;;;;;;13.03;12.10;;;15.30;48.70;;;;;;5052606;28;20462;-60
2022/10/14 08:26:33;;;;;;;13.57;12.67;;;15.30;49.00;;;;;;5052901;28;20406;-60
2022/10/14 08:29:02;;;;;;;14.57;13.37;;;15.30;49.30;;;;;;5052716;28;20420;-60
2022/10/14 08:31:28;;;;;;;14.17;13.27;;;15.40;48.90;;;;;;5052225;28;20911;-60
2022/10/14 08:33:53;;;;;;;14.33;13.33;;;15.40;48.70;;;;;;5047906;28;20541;-60
2022/10/14 08:36:20;;;;;;;15.33;14.43;;;15.40;48.20;;;;;;5032835;28;20520;-61
2022/10/14 08:38:46;;;;;;;13.47;12.57;;;15.40;48.00;;;;;;5067149;28;20441;-61
2022/10/14 08:41:12;;;;;;;13.00;12.17;;;15.50;47.90;;;;;;5072150;28;20431;-60
2022/10/14 08:43:56;;;;;;;13.30;12.30;;;15.50;47.50;;;;;;5072683;28;21192;-61
2022/10/14 08:46:23;;;;;;;13.70;12.37;;;15.60;47.50;;;;;;5072622;28;20172;-61
2022/10/14 08:49:02;;;;;;;13.20;12.20;;;15.60;47.50;;;;;;5050088;28;20422;-61
2022/10/14 08:51:30;;;;;;;12.43;11.63;;;15.60;47.10;;;;;;5051762;28;20773;-61
2022/10/14 08:54:05;;;;;;;13.33;12.30;;;15.70;46.70;;;;;;5032377;28;20442;-61
2022/10/14 08:56:33;;;;;;;13.97;12.77;;;15.70;46.60;;;;;;5047770;28;20422;-61
2022/10/14 08:59:05;;;;;;;13.07;12.13;;;15.70;46.60;;;;;;5052157;28;20785;-61
2022/10/14 09:01:33;;;;;;;13.70;12.70;;;15.80;46.70;;;;;;5051802;28;20437;-61
2022/10/14 09:04:03;;;;;;;12.83;12.13;;;15.70;46.20;;;;;;5048069;28;20459;-61
2022/10/14 09:06:32;;;;;;;13.17;12.47;;;15.70;46.70;;;;;;5031617;28;20416;-61
2022/10/14 09:09:29;;;;;;;12.37;11.60;;;15.70;46.60;;;;;;5031984;28;20415;-61
2022/10/14 09:12:03;;;;;;;12.43;11.80;;;15.70;46.10;;;;;;5018282;28;20994;-60
2022/10/14 09:14:41;;;;;;;13.63;12.93;;;15.70;45.40;;;;;;5031873;28;20431;-60
2022/10/14 09:17:29;;;;;;;13.03;12.43;;;15.70;45.40;;;;;;5032191;28;20519;-60
2022/10/14 09:20:18;;;;;;;12.40;11.40;;;15.70;45.70;;;;;;5030953;28;20423;-61
2022/10/14 09:23:11;;;;;;;14.27;13.10;;;15.80;45.50;;;;;;5031702;28;20570;-61
2022/10/14 09:25:42;;;;;;;11.90;11.30;;;15.80;44.50;;;;;;5044818;28;20418;-61
2022/10/14 09:28:08;;;;;;;12.97;12.23;;;15.80;44.50;;;;;;5071713;28;20402;-61
2022/10/14 09:30:36;;;;;;;12.20;11.60;;;15.90;44.50;;;;;;5070950;28;20420;-61
2022/10/14 09:33:04;;;;;;;11.77;11.07;;;15.90;44.40;;;;;;5071523;28;20776;-60
2022/10/14 09:35:39;;;;;;;13.33;12.53;;;15.80;44.40;;;;;;5042348;28;20448;-61
2022/10/14 09:38:06;;;;;;;12.73;12.00;;;15.90;44.50;;;;;;5048298;28;20772;-61
2022/10/14 09:40:39;;;;;;;12.50;11.90;;;15.90;44.40;;;;;;5047476;28;20423;-61
2022/10/14 09:43:08;;;;;;;12.53;11.87;;;16.00;44.00;;;;;;5048038;28;20821;-60
2022/10/14 09:45:47;;;;;;;11.80;11.10;;;16.10;43.80;;;;;;5031457;28;20411;-60
2022/10/14 09:48:26;;;;;;;12.97;12.30;;;16.10;43.70;;;;;;5048058;28;20415;-60
2022/10/14 09:50:55;;;;;;;12.80;11.87;;;16.20;43.80;;;;;;5030418;28;20849;-60
2022/10/14 09:53:29;;;;;;;11.73;10.93;;;16.10;42.90;;;;;;5053774;28;20476;-60
2022/10/14 09:56:01;;;;;;;12.30;11.63;;;16.10;42.90;;;;;;5050810;28;20422;-60
2022/10/14 09:58:49;;;;;;;12.57;11.90;;;16.20;43.10;;;;;;5051126;28;20422;-60
2022/10/14 10:01:18;;;;;;;11.13;10.63;;;16.20;43.10;;;;;;5050501;28;20501;-60
2022/10/14 10:03:44;;;;;;;11.73;11.13;;;16.30;43.00;;;;;;5050876;28;20660;-60
2022/10/14 10:06:17;;;;;;;12.43;11.83;;;16.40;42.90;;;;;;5033240;28;20974;-60
2022/10/14 10:08:52;;;;;;;13.07;12.13;;;16.40;42.90;;;;;;5047625;28;20830;-60
2022/10/14 10:11:36;;;;;;;12.10;11.30;;;16.50;42.40;;;;;;5050395;28;20463;-60
2022/10/14 10:14:16;;;;;;;11.00;10.40;;;16.60;42.70;;;;;;5050632;28;20938;-60
2022/10/14 10:16:42;;;;;;;12.20;11.57;;;16.60;42.20;;;;;;5041875;28;20423;-60
2022/10/14 10:19:27;;;;;;;12.17;11.53;;;16.70;42.40;;;;;;5030757;28;20481;-60
2022/10/14 10:22:13;;;;;;;12.70;11.57;;;16.70;42.10;;;;;;5030312;28;20511;-61
2022/10/14 10:24:39;;;;;;;12.97;11.90;;;16.70;42.10;;;;;;5063773;28;20412;-60
2022/10/14 10:27:28;;;;;;;12.47;11.57;;;16.80;43.20;;;;;;5070685;28;20410;-60
2022/10/14 10:29:57;;;;;;;11.73;11.03;;;16.80;42.60;;;;;;5042206;28;20266;-60
2022/10/14 10:32:33;;;;;;;12.40;11.80;;;16.90;42.50;;;;;;5056717;28;20419;-60
2022/10/14 10:35:21;;;;;;;12.10;11.50;;;16.90;42.20;;;;;;5050365;28;20803;-60
2022/10/14 10:38:04;;;;;;;12.53;11.87;;;16.90;41.80;;;;;;5050400;28;20414;-60
2022/10/14 10:40:37;;;;;;;11.90;11.40;;;16.90;42.00;;;;;;5049946;28;20894;-60
2022/10/14 10:43:10;;;;;;;11.10;10.50;;;16.90;41.70;;;;;;5050300;28;20454;-60
2022/10/14 10:46:07;;;;;;;13.00;12.17;;;17.00;41.80;;;;;;5050504;28;20480;-60
2022/10/14 10:48:46;;;;;;;11.90;11.30;;;17.10;41.20;;;;;;5050296;28;20417;-60
2022/10/14 10:51:42;;;;;;;11.30;10.80;;;17.10;40.60;;;;;;5049605;28;20445;-60
2022/10/14 10:54:31;;;;;;;12.33;11.43;;;17.10;40.20;;;;;;5050373;28;20898;-60
2022/10/14 10:57:02;;;;;;;10.93;10.33;;;17.10;39.90;;;;;;5050155;28;20437;-60
2022/10/14 10:59:37;;;;;;;10.60;10.20;;;17.10;39.90;;;;;;5050244;28;20430;-60
2022/10/14 11:02:18;;;;;;;11.00;10.50;;;17.20;40.20;;;;;;5044572;28;20462;-60
2022/10/14 11:04:55;;;;;;;12.20;11.10;;;17.20;39.80;;;;;;5047488;28;20848;-60
2022/10/14 11:13:37;;;;;;;11.23;10.50;;;17.10;40.30;;;;;;5051220;28;20464;-60
2022/10/14 11:16:18;;;;;;;10.57;10.03;;;17.10;40.60;;;;;;5050266;28;20422;-60
2022/10/14 11:19:06;;;;;;;11.33;10.43;;;17.20;42.40;;;;;;5058725;28;20491;-60
2022/10/14 11:21:38;;;;;;;9.97;9.17;;;17.00;45.30;;;;;;5057468;28;21168;-60
2022/10/14 11:24:38;;;;;;;10.10;9.40;;;16.90;47.70;;;;;;5069822;28;20465;-60
2022/10/14 11:27:17;;;;;;;11.27;10.67;;;16.80;49.90;;;;;;5057643;28;20405;-60
2022/10/14 11:29:47;;;;;;;9.90;9.30;;;16.70;50.60;;;;;;5052203;28;20464;-60
2022/10/14 11:32:58;;;;;;;9.17;8.77;;;16.70;51.10;;;;;;5053753;28;20468;-56
2022/10/14 11:35:52;;;;;;;10.00;9.43;;;16.60;50.90;;;;;;5022736;28;20479;-56
2022/10/14 11:38:20;;;;;;;10.30;9.60;;;16.60;50.80;;;;;;5054203;28;20666;-56
2022/10/14 11:40:55;;;;;;;9.90;9.40;;;16.60;49.90;;;;;;5053161;28;20514;-55
2022/10/14 11:43:44;;;;;;;9.83;9.23;;;16.60;49.70;;;;;;5053586;28;20461;-55
2022/10/14 11:46:19;;;;;;;10.10;9.60;;;16.70;49.20;;;;;;5053673;28;20429;-55
2022/10/14 11:48:50;;;;;;;10.33;9.73;;;16.60;49.80;;;;;;5062627;28;20424;-55
2022/10/14 11:51:34;;;;;;;9.83;9.10;;;16.70;49.80;;;;;;5072456;28;20413;-53
2022/10/14 11:54:10;;;;;;;10.40;8.83;;;16.70;50.00;;;;;;5073551;28;20409;-55
2022/10/14 11:56:56;;;;;;;11.27;10.50;;;16.80;50.00;;;;;;5073382;28;20417;-55
2022/10/14 11:59:42;;;;;;;10.83;10.20;;;16.80;49.80;;;;;;5073581;28;20881;-53
2022/10/14 12:02:18;;;;;;;10.53;9.80;;;16.90;48.70;;;;;;5070836;28;20449;-53
2022/10/14 12:04:50;;;;;;;10.20;9.50;;;16.90;50.20;;;;;;5053401;28;20421;-55
2022/10/14 12:07:22;;;;;;;9.63;9.20;;;17.00;49.10;;;;;;5052799;28;20398;-55
2022/10/14 12:09:56;;;;;;;11.10;10.00;;;17.00;48.90;;;;;;5053277;28;20426;-54
2022/10/14 12:12:25;;;;;;;12.03;10.10;;;17.10;47.80;;;;;;5053261;28;20434;-55
2022/10/14 12:14:56;;;;;;;11.43;10.53;;;17.10;47.90;;;;;;5053119;28;20438;-51
2022/10/14 12:17:25;;;;;;;10.63;10.13;;;17.10;47.30;;;;;;5053037;28;20433;-54
2022/10/14 12:19:51;;;;;;;10.70;9.87;;;17.10;47.10;;;;;;5052848;28;20488;-54
2022/10/14 12:22:24;;;;;;;9.87;9.00;;;17.10;46.20;;;;;;5052046;28;20511;-56
2022/10/14 12:24:53;;;;;;;8.47;8.17;;;17.20;46.10;;;;;;5052987;28;20418;-56
2022/10/14 12:27:22;;;;;;;9.97;9.30;;;17.20;46.10;;;;;;5053018;28;20516;-54
2022/10/14 12:29:50;;;;;;;10.20;9.80;;;17.20;45.80;;;;;;5052794;28;20419;-54
2022/10/14 12:32:20;;;;;;;10.27;9.50;;;17.20;46.20;;;;;;5051599;28;20509;-56
2022/10/14 12:35:29;;;;;;;10.73;10.17;;;17.30;46.30;;;;;;5032958;28;20412;-56
2022/10/14 12:38:02;;;;;;;10.03;9.63;;;17.40;45.80;;;;;;5038947;28;20421;-53
2022/10/14 12:40:28;;;;;;;10.03;9.53;;;17.40;45.20;;;;;;5071106;28;20500;-54
2022/10/14 12:42:57;;;;;;;10.30;9.70;;;17.40;44.80;;;;;;5072418;28;20506;-55
2022/10/14 12:45:25;;;;;;;9.40;8.90;;;17.50;45.80;;;;;;5061369;28;20423;-56
2022/10/14 12:48:21;;;;;;;10.03;9.10;;;17.60;45.10;;;;;;5054189;28;20411;-56
2022/10/14 12:50:50;;;;;;;9.87;9.43;;;17.60;44.70;;;;;;5051565;28;20783;-54
2022/10/14 12:53:23;;;;;;;10.00;9.60;;;17.60;43.70;;;;;;5056918;28;20425;-56
2022/10/14 12:56:00;;;;;;;10.33;9.83;;;17.60;43.60;;;;;;5072532;28;20474;-54